Time,TemperatureF,DewpointF,PressureIn,WindDirection,WindDirectionDegrees,WindSpeedMPH,WindSpeedGustMPH,Humidity,HourlyPrecipIn,Conditions,Clouds,dailyrainin,SoftwareType,DateUTC
2013-09-25 00:08:00,81.2,78.0,29.83,SW,217,4.0,-999.0,91,-99.99,,,0.00,weatherlink.com 1.10,2013-09-25 04:08:00,
2013-09-25 00:23:00,81.1,78.0,29.83,SSW,203,1.0,-999.0,90,-99.99,,,0.01,weatherlink.com 1.10,2013-09-25 04:23:00,
2013-09-25 00:38:00,81.2,78.0,29.82,SW,219,0.0,-999.0,91,-99.99,,,0.01,weatherlink.com 1.10,2013-09-25 04:38:00,
2013-09-25 00:53:00,81.2,78.0,29.82,SSW,207,0.0,-999.0,91,-99.99,,,0.02,weatherlink.com 1.10,2013-09-25 04:53:00,
2013-09-25 01:08:00,81.3,79.0,29.82,SSW,198,0.0,-999.0,91,-99.99,,,0.02,weatherlink.com 1.10,2013-09-25 05:08:00,
2013-09-25 01:23:00,81.3,79.0,29.81,SSW,200,1.0,-999.0,92,-99.99,,,0.03,weatherlink.com 1.10,2013-09-25 05:23:00,
2013-09-25 01:38:00,81.2,79.0,29.80,SSW,200,0.0,-999.0,92,-99.99,,,0.03,weatherlink.com 1.10,2013-09-25 05:38:00,
2013-09-25 01:53:00,81.3,79.0,29.80,SSW,199,0.0,-999.0,92,-99.99,,,0.03,weatherlink.com 1.10,2013-09-25 05:53:00,
2013-09-25 02:08:00,81.5,79.0,29.80,South,188,0.0,-999.0,92,-99.99,,,0.04,weatherlink.com 1.10,2013-09-25 06:08:00,
2013-09-25 02:23:00,81.4,79.0,29.80,ESE,117,2.0,-999.0,91,-99.99,,,0.04,weatherlink.com 1.10,2013-09-25 06:23:00,
2013-09-25 02:38:00,77.0,75.0,29.80,South,187,0.0,-999.0,92,-99.99,,,0.05,weatherlink.com 1.10,2013-09-25 06:38:00,
2013-09-25 02:53:00,76.6,75.0,29.80,NW,323,11.0,-999.0,95,-99.99,,,0.05,weatherlink.com 1.10,2013-09-25 06:53:00,
2013-09-25 03:08:00,75.0,74.0,29.79,NNW,338,6.0,-999.0,95,-99.99,,,0.06,weatherlink.com 1.10,2013-09-25 07:08:00,
2013-09-25 03:23:00,74.9,74.0,29.78,NNW,344,8.0,-999.0,96,-99.99,,,0.06,weatherlink.com 1.10,2013-09-25 07:23:00,
2013-09-25 03:38:00,75.0,74.0,29.78,North,5,6.0,-999.0,96,-99.99,,,0.06,weatherlink.com 1.10,2013-09-25 07:38:00,
2013-09-25 03:53:00,75.0,74.0,29.79,North,11,0.0,-999.0,96,-99.99,,,0.06,weatherlink.com 1.10,2013-09-25 07:53:00,
2013-09-25 04:08:00,75.0,74.0,29.80,North,10,0.0,-999.0,96,-99.99,,,0.06,weatherlink.com 1.10,2013-09-25 08:08:00,
2013-09-25 04:23:00,75.0,74.0,29.81,North,10,0.0,-999.0,96,-99.99,,,0.07,weatherlink.com 1.10,2013-09-25 08:23:00,
2013-09-25 04:38:00,75.1,74.0,29.80,North,11,0.0,-999.0,96,-99.99,,,0.07,weatherlink.com 1.10,2013-09-25 08:38:00,
2013-09-25 04:53:00,74.9,74.0,29.80,North,11,0.0,-999.0,96,-99.99,,,0.07,weatherlink.com 1.10,2013-09-25 08:53:00,
2013-09-25 05:08:00,75.1,74.0,29.81,North,11,0.0,-999.0,97,-99.99,,,0.08,weatherlink.com 1.10,2013-09-25 09:08:00,
2013-09-25 05:23:00,75.1,74.0,29.81,North,10,0.0,-999.0,97,-99.99,,,0.08,weatherlink.com 1.10,2013-09-25 09:23:00,
2013-09-25 05:38:00,75.4,75.0,29.80,North,11,0.0,-999.0,97,-99.99,,,0.08,weatherlink.com 1.10,2013-09-25 09:38:00,
2013-09-25 05:53:00,75.5,74.0,29.80,North,11,0.0,-999.0,96,-99.99,,,0.09,weatherlink.com 1.10,2013-09-25 09:53:00,
2013-09-25 06:08:00,75.5,75.0,29.80,North,11,1.0,-999.0,97,-99.99,,,0.09,weatherlink.com 1.10,2013-09-25 10:08:00,
2013-09-25 06:23:00,74.1,73.0,29.80,North,11,0.0,-999.0,96,-99.99,,,0.10,weatherlink.com 1.10,2013-09-25 10:23:00,
2013-09-25 06:38:00,74.2,73.0,29.80,North,11,0.0,-999.0,96,-99.99,,,0.10,weatherlink.com 1.10,2013-09-25 10:38:00,
2013-09-25 06:53:00,74.5,74.0,29.80,North,11,0.0,-999.0,97,-99.99,,,0.10,weatherlink.com 1.10,2013-09-25 10:53:00,
2013-09-25 07:08:00,74.7,74.0,29.80,North,11,0.0,-999.0,96,-99.99,,,0.11,weatherlink.com 1.10,2013-09-25 11:08:00,
2013-09-25 07:23:00,74.9,74.0,29.83,North,11,2.0,-999.0,96,-99.99,,,0.11,weatherlink.com 1.10,2013-09-25 11:23:00,
2013-09-25 07:38:00,74.1,73.0,29.84,NNW,342,4.0,-999.0,96,-99.99,,,0.12,weatherlink.com 1.10,2013-09-25 11:38:00,
2013-09-25 07:53:00,74.1,73.0,29.85,NW,318,11.0,-999.0,96,-99.99,,,0.12,weatherlink.com 1.10,2013-09-25 11:53:00,
2013-09-25 08:08:00,71.7,71.0,29.86,North,360,9.0,-999.0,96,-99.99,,,0.12,weatherlink.com 1.10,2013-09-25 12:08:00,
2013-09-25 08:23:00,71.5,70.0,29.86,North,360,9.0,-999.0,96,-99.99,,,0.13,weatherlink.com 1.10,2013-09-25 12:23:00,
2013-09-25 08:38:00,71.6,71.0,29.85,North,355,6.0,-999.0,97,-99.99,,,0.13,weatherlink.com 1.10,2013-09-25 12:38:00,
2013-09-25 08:53:00,71.7,71.0,29.85,NE,34,7.0,-999.0,97,-99.99,,,0.14,weatherlink.com 1.10,2013-09-25 12:53:00,
2013-09-25 09:08:00,72.0,71.0,29.86,NE,36,3.0,-999.0,96,-99.99,,,0.14,weatherlink.com 1.10,2013-09-25 13:08:00,
2013-09-25 09:23:00,71.6,70.0,29.86,NE,36,4.0,-999.0,96,-99.99,,,0.14,weatherlink.com 1.10,2013-09-25 13:23:00,
2013-09-25 09:38:00,71.9,71.0,29.86,NE,36,1.0,-999.0,96,-99.99,,,0.15,weatherlink.com 1.10,2013-09-25 13:38:00,
2013-09-25 09:53:00,71.9,71.0,29.86,NE,36,4.0,-999.0,96,-99.99,,,0.15,weatherlink.com 1.10,2013-09-25 13:53:00,
2013-09-25 10:08:00,71.9,71.0,29.88,NE,36,0.0,-999.0,95,-99.99,,,0.16,weatherlink.com 1.10,2013-09-25 14:08:00,
2013-09-25 10:23:00,71.8,71.0,29.88,ESE,120,0.0,-999.0,96,-99.99,,,0.16,weatherlink.com 1.10,2013-09-25 14:23:00,
2013-09-25 10:38:00,71.9,71.0,29.89,ESE,119,0.0,-999.0,96,-99.99,,,0.16,weatherlink.com 1.10,2013-09-25 14:38:00,
2013-09-25 10:53:00,72.5,72.0,29.88,ESE,121,1.0,-999.0,97,-99.99,,,0.17,weatherlink.com 1.10,2013-09-25 14:53:00,
2013-09-25 11:08:00,72.8,72.0,29.86,SSE,147,4.0,-999.0,96,-99.99,,,0.17,weatherlink.com 1.10,2013-09-25 15:08:00,
2013-09-25 11:23:00,72.4,71.0,29.86,SSW,195,0.0,-999.0,96,-99.99,,,0.18,weatherlink.com 1.10,2013-09-25 15:23:00,
2013-09-25 11:38:00,73.7,73.0,29.85,SW,221,2.0,-999.0,96,-99.99,,,0.18,weatherlink.com 1.10,2013-09-25 15:38:00,
2013-09-25 11:53:00,74.2,73.0,29.82,South,190,10.0,-999.0,95,-99.99,,,0.18,weatherlink.com 1.10,2013-09-25 15:53:00,
2013-09-25 12:08:00,74.4,73.0,29.81,WSW,255,10.0,-999.0,94,-99.99,,,0.19,weatherlink.com 1.10,2013-09-25 16:08:00,
2013-09-25 12:23:00,74.6,72.0,29.79,South,172,7.0,-999.0,91,-99.99,,,0.20,weatherlink.com 1.10,2013-09-25 16:23:00,
2013-09-25 12:38:00,75.2,73.0,29.81,SSW,196,0.0,-999.0,91,-99.99,,,0.20,weatherlink.com 1.10,2013-09-25 16:38:00,
2013-09-25 12:53:00,75.5,73.0,29.79,SW,232,2.0,-999.0,91,-99.99,,,0.20,weatherlink.com 1.10,2013-09-25 16:53:00,
2013-09-25 13:08:00,76.2,74.0,29.80,SW,225,1.0,-999.0,91,-99.99,,,0.21,weatherlink.com 1.10,2013-09-25 17:08:00,
2013-09-25 13:23:00,76.7,74.0,29.79,South,183,4.0,-999.0,92,-99.99,,,0.21,weatherlink.com 1.10,2013-09-25 17:23:00,
2013-09-25 13:38:00,77.0,74.0,29.77,SSW,203,7.0,-999.0,91,-99.99,,,0.22,weatherlink.com 1.10,2013-09-25 17:38:00,
2013-09-25 13:53:00,77.6,75.0,29.77,SSW,200,0.0,-999.0,90,-99.99,,,0.22,weatherlink.com 1.10,2013-09-25 17:53:00,
2013-09-25 14:08:00,78.0,75.0,29.77,SW,216,0.0,-999.0,89,-99.99,,,0.22,weatherlink.com 1.10,2013-09-25 18:08:00,
2013-09-25 14:23:00,78.4,75.0,29.78,SSW,201,1.0,-999.0,88,-99.99,,,0.23,weatherlink.com 1.10,2013-09-25 18:23:00,
2013-09-25 14:38:00,79.1,76.0,29.77,SSW,200,0.0,-999.0,89,-99.99,,,0.23,weatherlink.com 1.10,2013-09-25 18:38:00,
2013-09-25 14:53:00,79.3,75.0,29.77,SSW,213,4.0,-999.0,86,-99.99,,,0.24,weatherlink.com 1.10,2013-09-25 18:53:00,
2013-09-25 15:08:00,79.9,76.0,29.76,SSW,195,0.0,-999.0,87,-99.99,,,0.24,weatherlink.com 1.10,2013-09-25 19:08:00,
2013-09-25 15:23:00,80.0,76.0,29.76,South,186,4.0,-999.0,86,-99.99,,,0.25,weatherlink.com 1.10,2013-09-25 19:23:00,
2013-09-25 15:38:00,79.8,75.0,29.76,SSW,198,1.0,-999.0,86,-99.99,,,0.25,weatherlink.com 1.10,2013-09-25 19:38:00,
2013-09-25 15:53:00,79.8,76.0,29.76,South,181,1.0,-999.0,87,-99.99,,,0.26,weatherlink.com 1.10,2013-09-25 19:53:00,
2013-09-25 16:08:00,79.6,76.0,29.75,SW,223,6.0,-999.0,88,-99.99,,,0.26,weatherlink.com 1.10,2013-09-25 20:08:00,
2013-09-25 16:23:00,79.6,77.0,29.75,South,176,5.0,-999.0,90,-99.99,,,0.26,weatherlink.com 1.10,2013-09-25 20:23:00,
2013-09-25 16:38:00,79.4,76.0,29.75,South,190,4.0,-999.0,88,-99.99,,,0.27,weatherlink.com 1.10,2013-09-25 20:38:00,
2013-09-25 16:53:00,79.4,76.0,29.75,SSW,202,0.0,-999.0,89,-99.99,,,0.28,weatherlink.com 1.10,2013-09-25 20:53:00,
2013-09-25 17:08:00,79.6,76.0,29.75,SSW,205,1.0,-999.0,89,-99.99,,,0.28,weatherlink.com 1.10,2013-09-25 21:08:00,
2013-09-25 17:23:00,79.4,76.0,29.75,WSW,242,3.0,-999.0,89,-99.99,,,0.28,weatherlink.com 1.10,2013-09-25 21:23:00,
2013-09-25 17:38:00,79.3,76.0,29.75,South,191,1.0,-999.0,89,-99.99,,,0.29,weatherlink.com 1.10,2013-09-25 21:38:00,
2013-09-25 17:53:00,79.1,76.0,29.75,ESE,105,1.0,-999.0,90,-99.99,,,0.29,weatherlink.com 1.10,2013-09-25 21:53:00,
2013-09-25 18:08:00,79.2,76.0,29.75,SSW,209,0.0,-999.0,91,-99.99,,,0.30,weatherlink.com 1.10,2013-09-25 22:08:00,
2013-09-25 18:23:00,79.3,76.0,29.75,SSW,205,0.0,-999.0,90,-99.99,,,0.30,weatherlink.com 1.10,2013-09-25 22:23:00,
2013-09-25 18:38:00,79.4,76.0,29.75,SW,223,0.0,-999.0,90,-99.99,,,0.31,weatherlink.com 1.10,2013-09-25 22:38:00,
2013-09-25 18:53:00,79.6,76.0,29.76,West,280,1.0,-999.0,89,-99.99,,,0.31,weatherlink.com 1.10,2013-09-25 22:53:00,
2013-09-25 19:08:00,79.9,77.0,29.75,WSW,257,1.0,-999.0,89,-99.99,,,0.32,weatherlink.com 1.10,2013-09-25 23:08:00,
2013-09-25 19:23:00,80.1,77.0,29.76,SW,234,1.0,-999.0,89,-99.99,,,0.32,weatherlink.com 1.10,2013-09-25 23:23:00,
2013-09-25 19:38:00,80.5,77.0,29.76,South,190,1.0,-999.0,89,-99.99,,,0.32,weatherlink.com 1.10,2013-09-25 23:38:00,
2013-09-25 19:53:00,81.1,78.0,29.76,SW,233,1.0,-999.0,89,-99.99,,,0.33,weatherlink.com 1.10,2013-09-25 23:53:00,
2013-09-25 20:08:00,81.1,78.0,29.76,SW,234,0.0,-999.0,89,-99.99,,,0.33,weatherlink.com 1.10,2013-09-26 00:08:00,
2013-09-25 20:23:00,81.2,78.0,29.76,South,180,3.0,-999.0,91,-99.99,,,0.34,weatherlink.com 1.10,2013-09-26 00:23:00,
2013-09-25 20:38:00,81.3,79.0,29.76,WSW,251,0.0,-999.0,91,-99.99,,,0.34,weatherlink.com 1.10,2013-09-26 00:38:00,
2013-09-25 20:53:00,81.4,79.0,29.76,SSE,147,3.0,-999.0,91,-99.99,,,0.35,weatherlink.com 1.10,2013-09-26 00:53:00,
2013-09-25 21:08:00,81.3,79.0,29.76,South,172,0.0,-999.0,92,-99.99,,,0.35,weatherlink.com 1.10,2013-09-26 01:08:00,
2013-09-25 21:23:00,81.1,79.0,29.76,South,188,1.0,-999.0,92,-99.99,,,0.36,weatherlink.com 1.10,2013-09-26 01:23:00,
2013-09-25 21:38:00,81.2,79.0,29.77,South,187,0.0,-999.0,93,-99.99,,,0.36,weatherlink.com 1.10,2013-09-26 01:38:00,
2013-09-25 21:53:00,81.3,79.0,29.77,West,277,0.0,-999.0,93,-99.99,,,0.36,weatherlink.com 1.10,2013-09-26 01:53:00,
2013-09-25 22:08:00,81.5,79.0,29.78,SW,232,0.0,-999.0,93,-99.99,,,0.37,weatherlink.com 1.10,2013-09-26 02:08:00,
2013-09-25 22:23:00,81.5,79.0,29.78,WSW,252,1.0,-999.0,92,-99.99,,,0.37,weatherlink.com 1.10,2013-09-26 02:23:00,
2013-09-25 22:38:00,81.5,79.0,29.78,SSW,213,0.0,-999.0,92,-99.99,,,0.38,weatherlink.com 1.10,2013-09-26 02:38:00,
2013-09-25 22:53:00,81.4,79.0,29.78,SW,214,0.0,-999.0,92,-99.99,,,0.38,weatherlink.com 1.10,2013-09-26 02:53:00,
2013-09-25 23:23:00,81.4,79.0,29.78,West,267,0.0,-999.0,92,-99.99,,,0.39,weatherlink.com 1.10,2013-09-26 03:23:00,
2013-09-25 23:53:00,81.4,79.0,29.78,WSW,252,2.0,-999.0,93,-99.99,,,0.40,weatherlink.com 1.10,2013-09-26 03:53:00,